createdAt,value
2018-02-27T00:01:38.024Z,7.60
2018-02-27T00:04:06.263Z,7.75
2018-02-27T00:06:34.525Z,6.83
2018-02-27T00:09:01.999Z,6.77
2018-02-27T00:11:30.238Z,7.80
2018-02-27T00:13:57.726Z,10.10
2018-02-27T00:16:25.989Z,10.18
2018-02-27T00:18:53.478Z,9.80
2018-02-27T00:21:21.733Z,7.77
2018-02-27T00:23:49.977Z,6.85
2018-02-27T00:26:17.468Z,6.53
2018-02-27T00:28:44.963Z,6.60
2018-02-27T00:31:12.447Z,6.50
2018-02-27T00:33:39.917Z,6.63
2018-02-27T00:36:07.414Z,6.75
2018-02-27T00:38:35.652Z,7.07
2018-02-27T00:41:03.239Z,7.17
2018-02-27T00:43:31.491Z,6.70
2018-02-27T00:45:58.984Z,6.50
2018-02-27T00:48:27.245Z,6.50
2018-02-27T00:50:54.843Z,6.80
2018-02-27T00:53:22.381Z,6.67
2018-02-27T00:55:50.647Z,6.50
2018-02-27T00:58:18.885Z,5.55
2018-02-27T01:00:46.481Z,7.13
2018-02-27T01:03:13.951Z,6.50
2018-02-27T01:05:42.218Z,6.53
2018-02-27T01:08:10.462Z,7.57
2018-02-27T01:10:37.952Z,6.70
2018-02-27T01:13:06.204Z,7.00
2018-02-27T01:15:33.676Z,7.40
2018-02-27T01:18:01.948Z,7.03
2018-02-27T01:20:29.433Z,6.97
2018-02-27T01:22:56.929Z,7.40
2018-02-27T01:25:24.422Z,7.23
2018-02-27T01:27:51.996Z,6.53
2018-02-27T01:30:20.240Z,6.57
2018-02-27T01:32:49.244Z,6.93
2018-02-27T01:35:16.739Z,7.30
2018-02-27T01:37:44.237Z,6.90
2018-02-27T01:40:11.718Z,7.50
2018-02-27T01:42:39.212Z,6.85
2018-02-27T01:45:06.683Z,7.50
2018-02-27T01:47:34.200Z,7.60
2018-02-27T01:50:01.710Z,8.20
2018-02-27T01:52:29.195Z,7.27
2018-02-27T01:54:56.677Z,7.60
2018-02-27T01:57:24.930Z,7.25
2018-02-27T01:59:52.409Z,6.43
2018-02-27T02:02:19.898Z,7.20
2018-02-27T02:04:48.134Z,8.43
2018-02-27T02:07:15.625Z,8.40
2018-02-27T02:09:43.113Z,7.20
2018-02-27T02:12:10.599Z,6.93
2018-02-27T02:14:38.093Z,7.40
2018-02-27T02:17:05.578Z,7.80
2018-02-27T02:19:33.072Z,8.10
2018-02-27T02:22:00.545Z,6.60
2018-02-27T02:24:28.030Z,7.00
2018-02-27T02:26:55.497Z,7.00
2018-02-27T02:29:22.971Z,7.50
2018-02-27T02:31:50.444Z,7.87
2018-02-27T02:34:17.927Z,7.77
2018-02-27T02:36:45.407Z,8.40
2018-02-27T02:39:13.667Z,7.80
2018-02-27T02:41:41.923Z,7.95
2018-02-27T02:44:09.424Z,8.00
2018-02-27T02:46:36.909Z,7.80
2018-02-27T02:49:04.405Z,8.18
2018-02-27T02:51:31.885Z,7.90
2018-02-27T02:54:00.150Z,8.15
2018-02-27T02:56:27.634Z,8.00
2018-02-27T02:58:55.118Z,7.40
2018-02-27T03:01:22.596Z,7.67
2018-02-27T03:03:50.085Z,8.73
2018-02-27T03:06:18.316Z,8.20
2018-02-27T03:08:45.811Z,7.63
2018-02-27T03:11:13.298Z,8.20
2018-02-27T03:13:40.778Z,8.23
2018-02-27T03:16:08.261Z,8.50
2018-02-27T03:18:35.741Z,8.37
2018-02-27T03:21:04.002Z,8.40
2018-02-27T03:23:31.495Z,7.70
2018-02-27T03:25:59.745Z,8.10
2018-02-27T03:28:27.235Z,8.25
2018-02-27T03:30:54.721Z,7.68
2018-02-27T03:33:22.980Z,7.00
2018-02-27T03:35:50.469Z,9.60
2018-02-27T03:38:17.958Z,7.77
2018-02-27T03:40:45.468Z,8.03
2018-02-27T03:43:14.999Z,7.68
2018-02-27T03:45:42.577Z,8.23
2018-02-27T03:48:10.070Z,8.50
2018-02-27T03:50:41.062Z,8.37
2018-02-27T03:53:08.557Z,8.30
2018-02-27T03:55:36.806Z,8.20
2018-02-27T03:58:04.286Z,9.00
2018-02-27T04:00:32.537Z,8.13
2018-02-27T04:03:00.021Z,8.17
2018-02-27T04:05:28.280Z,8.20
2018-02-27T04:07:55.753Z,8.20
2018-02-27T04:10:24.014Z,8.70
2018-02-27T04:12:51.500Z,8.10
2018-02-27T04:15:18.988Z,8.53
2018-02-27T04:17:46.491Z,8.80
2018-02-27T04:20:14.749Z,9.10
2018-02-27T04:22:42.247Z,9.63
2018-02-27T04:25:09.746Z,9.37
2018-02-27T04:27:37.240Z,8.32
2018-02-27T04:30:04.710Z,8.10
2018-02-27T04:32:32.964Z,20.47
2018-02-27T04:35:00.449Z,13.90
2018-02-27T04:37:28.706Z,11.60
2018-02-27T04:39:56.999Z,8.30
2018-02-27T04:42:25.249Z,8.53
2018-02-27T04:44:52.819Z,7.10
2018-02-27T04:47:20.372Z,8.00
2018-02-27T04:49:47.845Z,8.10
2018-02-27T04:52:16.097Z,7.20
2018-02-27T04:54:43.582Z,7.87
2018-02-27T04:57:11.830Z,7.40
2018-02-27T04:59:39.327Z,8.20
2018-02-27T05:02:06.824Z,9.03
2018-02-27T05:04:34.319Z,7.83
2018-02-27T05:07:01.822Z,8.60
2018-02-27T05:09:29.302Z,8.23
2018-02-27T05:11:56.903Z,7.87
2018-02-27T05:14:25.160Z,8.40
2018-02-27T05:16:52.645Z,7.77
2018-02-27T05:19:20.892Z,8.00
2018-02-27T05:21:48.385Z,7.20
2018-02-27T05:24:15.848Z,7.70
2018-02-27T05:26:43.345Z,9.37
2018-02-27T05:29:10.828Z,8.50
2018-02-27T05:31:38.314Z,8.33
2018-02-27T05:34:05.802Z,9.07
2018-02-27T05:36:33.293Z,10.07
2018-02-27T05:39:00.777Z,14.40
2018-02-27T05:41:29.033Z,11.80
2018-02-27T05:43:57.088Z,12.67
2018-02-27T05:46:24.572Z,10.60
2018-02-27T05:48:52.825Z,10.60
2018-02-27T05:51:20.317Z,8.87
2018-02-27T05:53:48.599Z,8.50
2018-02-27T05:56:16.849Z,9.20
2018-02-27T05:58:44.342Z,9.60
2018-02-27T06:01:11.833Z,9.60
2018-02-27T06:03:39.322Z,9.33
2018-02-27T06:06:06.793Z,10.23
2018-02-27T06:08:35.063Z,8.93
2018-02-27T06:11:03.313Z,9.13
2018-02-27T06:13:30.784Z,10.57
2018-02-27T06:15:58.273Z,10.95
2018-02-27T06:21:20.083Z,10.40
2018-02-27T06:23:49.097Z,14.67
2018-02-27T06:26:17.364Z,17.37
2018-02-27T06:28:44.863Z,12.53
2018-02-27T06:31:12.342Z,15.80
2018-02-27T06:33:39.853Z,12.33
2018-02-27T06:36:08.125Z,14.70
2018-02-27T06:38:36.402Z,10.67
2018-02-27T06:41:04.667Z,10.33
2018-02-27T06:43:32.155Z,14.38
2018-02-27T06:45:59.638Z,11.80
2018-02-27T06:48:27.136Z,11.40
2018-02-27T06:50:54.624Z,11.00
2018-02-27T06:53:22.114Z,13.40
2018-02-27T06:55:49.588Z,11.50
2018-02-27T06:58:17.082Z,11.70
2018-02-27T07:00:45.330Z,13.03
2018-02-27T07:03:12.829Z,11.87
2018-02-27T07:05:41.074Z,11.10
2018-02-27T07:08:08.566Z,10.40
2018-02-27T07:10:36.085Z,11.13
2018-02-27T07:13:05.101Z,10.53
2018-02-27T07:15:33.369Z,11.50
2018-02-27T07:18:00.858Z,10.60
2018-02-27T07:20:28.323Z,11.97
2018-02-27T07:22:55.827Z,12.60
2018-02-27T07:25:23.306Z,8.10
2018-02-27T07:27:51.570Z,7.87
2018-02-27T07:30:19.845Z,8.90
2018-02-27T07:32:47.343Z,9.20
2018-02-27T07:35:14.848Z,9.50
2018-02-27T07:37:42.330Z,9.90
2018-02-27T07:40:10.578Z,8.77
2018-02-27T07:42:38.985Z,9.07
2018-02-27T07:45:07.242Z,10.23
2018-02-27T07:47:34.738Z,8.23
2018-02-27T07:50:02.219Z,9.55
2018-02-27T07:52:29.705Z,9.47
2018-02-27T07:54:57.179Z,9.10
2018-02-27T07:57:25.453Z,9.40
2018-02-27T07:59:52.930Z,10.73
2018-02-27T08:02:21.175Z,9.17
2018-02-27T08:04:48.679Z,9.80
2018-02-27T08:07:16.162Z,11.12
2018-02-27T08:09:43.641Z,9.93
2018-02-27T08:12:11.126Z,11.67
2018-02-27T08:14:38.631Z,9.10
2018-02-27T08:17:06.109Z,10.38
2018-02-27T08:19:33.612Z,10.00
2018-02-27T08:22:01.862Z,10.70
2018-02-27T08:24:29.357Z,9.70
2018-02-27T08:26:56.845Z,9.90
2018-02-27T08:29:24.332Z,10.37
2018-02-27T08:31:51.816Z,10.93
2018-02-27T08:34:20.087Z,10.37
2018-02-27T08:36:47.584Z,10.07
2018-02-27T08:39:15.069Z,11.27
2018-02-27T08:41:42.550Z,10.10
2018-02-27T08:44:10.043Z,10.93
2018-02-27T08:46:37.527Z,10.90
2018-02-27T08:49:05.016Z,10.13
2018-02-27T08:51:32.496Z,9.70
2018-02-27T08:54:00.778Z,8.60
2018-02-27T08:56:29.030Z,10.77
2018-02-27T08:58:56.517Z,10.70
2018-02-27T09:01:24.770Z,10.90
2018-02-27T09:03:52.275Z,10.37
2018-02-27T09:06:19.748Z,12.27
2018-02-27T09:08:47.241Z,11.90
2018-02-27T09:11:14.732Z,10.43
2018-02-27T09:13:42.225Z,10.20
2018-02-27T09:16:09.711Z,11.40
2018-02-27T09:18:37.207Z,12.73
2018-02-27T09:21:04.679Z,11.43
2018-02-27T09:23:32.171Z,11.70
2018-02-27T09:25:59.664Z,11.23
2018-02-27T09:28:27.924Z,12.83
2018-02-27T09:30:55.415Z,13.13
2018-02-27T09:33:22.908Z,12.75
2018-02-27T09:35:50.395Z,12.87
2018-02-27T09:38:17.871Z,13.25
2018-02-27T09:40:46.122Z,14.03
2018-02-27T09:43:13.596Z,11.85
2018-02-27T09:45:41.854Z,13.25
2018-02-27T09:48:09.342Z,12.70
2018-02-27T09:50:37.593Z,13.27
2018-02-27T09:53:05.061Z,14.33
2018-02-27T09:55:32.562Z,12.85
2018-02-27T09:58:00.049Z,13.13
2018-02-27T10:00:27.533Z,11.80
2018-02-27T10:02:55.107Z,12.77
2018-02-27T10:05:23.361Z,12.73
2018-02-27T10:07:50.841Z,11.83
2018-02-27T10:10:19.198Z,11.60
2018-02-27T10:12:46.669Z,13.10
2018-02-27T10:15:14.953Z,12.77
2018-02-27T10:17:43.214Z,14.77
2018-02-27T10:20:11.478Z,11.90
2018-02-27T10:22:38.990Z,13.00
2018-02-27T10:25:06.495Z,12.03
2018-02-27T10:27:34.029Z,12.43
2018-02-27T10:30:01.522Z,12.67
2018-02-27T10:32:28.996Z,13.80
2018-02-27T10:34:57.294Z,13.03
2018-02-27T10:37:24.773Z,10.83
2018-02-27T10:39:52.280Z,13.18
2018-02-27T10:42:20.522Z,12.37
2018-02-27T10:44:48.004Z,12.57
2018-02-27T10:47:15.500Z,11.30
2018-02-27T10:49:42.989Z,12.33
2018-02-27T10:52:10.588Z,11.40
2018-02-27T10:54:38.855Z,10.67
2018-02-27T10:57:06.343Z,13.20
2018-02-27T10:59:33.854Z,11.70
2018-02-27T11:02:03.137Z,12.02
2018-02-27T11:04:30.626Z,12.93
2018-02-27T11:06:59.013Z,14.30
2018-02-27T11:09:27.271Z,12.97
2018-02-27T11:11:54.772Z,13.63
2018-02-27T11:14:22.271Z,13.00
2018-02-27T11:16:49.782Z,13.50
2018-02-27T11:19:18.027Z,12.77
2018-02-27T11:21:45.521Z,13.20
2018-02-27T11:24:13.012Z,12.60
2018-02-27T11:26:40.554Z,13.10
2018-02-27T11:29:08.051Z,13.87
2018-02-27T11:31:35.557Z,12.20
2018-02-27T11:34:04.093Z,14.02
2018-02-27T11:36:31.611Z,15.40
2018-02-27T11:38:59.098Z,16.67
2018-02-27T11:41:26.580Z,15.40
2018-02-27T11:43:54.061Z,13.50
2018-02-27T11:46:23.060Z,14.25
2018-02-27T11:48:51.305Z,13.27
2018-02-27T11:51:18.789Z,12.80
2018-02-27T11:53:46.343Z,15.95
2018-02-27T11:56:14.612Z,17.07
2018-02-27T11:58:42.862Z,12.90
2018-02-27T12:01:11.312Z,14.37
2018-02-27T12:03:38.805Z,14.27
2018-02-27T12:06:06.321Z,13.32
2018-02-27T12:08:33.798Z,13.10
2018-02-27T12:11:02.182Z,13.83
2018-02-27T12:13:29.673Z,14.87
2018-02-27T12:15:57.943Z,18.13
2018-02-27T12:18:25.439Z,15.70
2018-02-27T12:20:52.963Z,13.33
2018-02-27T12:23:20.451Z,13.60
2018-02-27T12:25:47.934Z,15.13
2018-02-27T12:28:15.421Z,14.93
2018-02-27T12:30:42.909Z,14.20
2018-02-27T12:33:11.177Z,14.00
2018-02-27T12:35:39.432Z,14.80
2018-02-27T12:38:06.946Z,13.90
2018-02-27T12:40:34.448Z,14.53
2018-02-27T12:43:01.919Z,14.40
2018-02-27T12:45:29.399Z,12.00
2018-02-27T12:47:57.647Z,14.17
2018-02-27T12:50:25.133Z,13.73
2018-02-27T12:52:53.435Z,14.27
2018-02-27T12:55:21.638Z,14.33
2018-02-27T12:57:50.650Z,13.85
2018-02-27T13:00:18.140Z,14.87
2018-02-27T13:02:46.428Z,15.10
2018-02-27T13:05:14.000Z,14.03
2018-02-27T13:07:41.488Z,14.30
2018-02-27T13:10:10.064Z,15.60
2018-02-27T13:12:37.544Z,14.00
2018-02-27T13:15:05.027Z,15.70
2018-02-27T13:17:33.333Z,14.00
2018-02-27T13:20:00.822Z,15.40
2018-02-27T13:22:28.334Z,15.48
2018-02-27T13:24:55.817Z,14.27
2018-02-27T13:27:23.306Z,15.43
2018-02-27T13:29:51.549Z,15.20
2018-02-27T13:32:19.039Z,13.80
2018-02-27T13:34:47.455Z,13.30
2018-02-27T13:37:14.957Z,15.33
2018-02-27T13:39:42.439Z,15.37
2018-02-27T13:42:09.928Z,15.70
2018-02-27T13:44:37.408Z,15.70
2018-02-27T13:47:04.914Z,17.25
2018-02-27T13:49:32.421Z,16.33
2018-02-27T13:51:59.927Z,17.23
2018-02-27T13:54:27.402Z,14.90
2018-02-27T13:56:55.652Z,15.37
2018-02-27T13:59:23.128Z,13.77
2018-02-27T14:01:50.630Z,16.13
2018-02-27T14:04:18.107Z,14.83
2018-02-27T14:06:45.601Z,13.97
2018-02-27T14:09:13.850Z,17.95
2018-02-27T14:11:41.354Z,18.93
2018-02-27T14:14:08.840Z,18.63
2018-02-27T14:16:36.348Z,21.50
2018-02-27T14:19:03.826Z,18.97
2018-02-27T14:21:32.077Z,17.80
2018-02-27T14:23:59.595Z,15.70
2018-02-27T14:26:27.089Z,14.40
2018-02-27T14:28:54.572Z,15.60
2018-02-27T14:31:22.816Z,16.00
2018-02-27T14:33:51.816Z,15.57
2018-02-27T14:36:20.812Z,15.67
2018-02-27T14:38:48.302Z,16.20
2018-02-27T14:41:15.797Z,14.00
2018-02-27T14:43:43.313Z,17.10
2018-02-27T14:46:11.561Z,15.27
2018-02-27T14:48:39.047Z,15.43
2018-02-27T14:51:07.285Z,16.27
2018-02-27T14:53:34.793Z,18.70
2018-02-27T14:56:02.274Z,13.70
2018-02-27T14:58:29.769Z,16.83
2018-02-27T15:00:57.250Z,15.20
2018-02-27T15:03:25.514Z,15.00
2018-02-27T15:05:53.770Z,15.70
2018-02-27T15:08:21.270Z,17.08
2018-02-27T15:10:48.770Z,15.40
2018-02-27T15:13:17.027Z,16.63
2018-02-27T15:15:44.522Z,15.83
2018-02-27T15:18:12.012Z,15.33
2018-02-27T15:20:40.250Z,15.60
2018-02-27T15:23:07.737Z,14.80
2018-02-27T15:25:35.986Z,15.80
2018-02-27T15:28:03.500Z,17.13
2018-02-27T15:30:31.007Z,15.07
2018-02-27T15:32:58.489Z,15.37
2018-02-27T15:35:26.732Z,15.80
2018-02-27T15:37:54.317Z,15.73
2018-02-27T15:40:22.574Z,16.23
2018-02-27T15:42:50.072Z,14.60
2018-02-27T15:45:17.567Z,17.70
2018-02-27T15:47:45.072Z,18.10
2018-02-27T15:50:13.332Z,18.30
2018-02-27T15:52:41.608Z,16.97
2018-02-27T15:55:09.102Z,15.45
2018-02-27T15:57:36.607Z,18.03
2018-02-27T16:00:04.097Z,16.87
2018-02-27T16:02:32.364Z,16.65
2018-02-27T16:05:00.637Z,16.73
2018-02-27T16:07:28.110Z,16.80
2018-02-27T16:09:56.381Z,16.55
2018-02-27T16:12:24.627Z,16.23
2018-02-27T16:14:52.126Z,18.03
2018-02-27T16:17:20.380Z,18.13
2018-02-27T16:19:49.984Z,17.30
2018-02-27T16:22:17.474Z,17.40
2018-02-27T16:24:44.975Z,16.67
2018-02-27T16:27:12.460Z,17.27
2018-02-27T16:29:39.939Z,14.10
2018-02-27T16:32:08.191Z,15.38
2018-02-27T16:34:35.758Z,15.17
2018-02-27T16:37:04.037Z,15.63
2018-02-27T16:39:32.302Z,16.53
2018-02-27T16:41:59.794Z,17.23
2018-02-27T16:44:27.278Z,16.50
2018-02-27T16:46:54.766Z,15.20
2018-02-27T16:49:22.279Z,15.73
2018-02-27T16:51:49.761Z,15.77
2018-02-27T16:54:17.505Z,16.95
2018-02-27T16:56:45.742Z,18.70
2018-02-27T16:59:14.010Z,15.27
2018-02-27T17:01:41.494Z,17.67
2018-02-27T17:04:09.746Z,16.13
2018-02-27T17:06:37.221Z,16.80
2018-02-27T17:09:05.482Z,15.30
2018-02-27T17:11:33.738Z,17.50
2018-02-27T17:14:01.245Z,16.60
2018-02-27T17:16:28.725Z,16.12
2018-02-27T17:18:56.247Z,16.58
2018-02-27T17:21:24.500Z,18.03
2018-02-27T17:23:55.449Z,18.40
2018-02-27T17:26:23.698Z,17.05
2018-02-27T17:28:51.204Z,15.27
2018-02-27T17:31:18.710Z,15.10
2018-02-27T17:33:46.227Z,16.80
2018-02-27T17:36:13.774Z,16.23
2018-02-27T17:38:42.042Z,14.90
2018-02-27T17:41:20.104Z,17.62
2018-02-27T17:43:47.593Z,17.07
2018-02-27T17:46:15.081Z,15.80
2018-02-27T17:48:42.576Z,17.40
2018-02-27T17:51:10.092Z,15.47
2018-02-27T17:53:37.668Z,18.37
2018-02-27T17:56:05.233Z,16.67
2018-02-27T17:58:32.958Z,17.07
2018-02-27T18:01:01.225Z,17.10
2018-02-27T18:03:30.600Z,17.80
2018-02-27T18:05:58.896Z,15.87
2018-02-27T18:08:26.387Z,16.10
2018-02-27T18:10:53.896Z,25.77
2018-02-27T18:13:21.381Z,16.67
2018-02-27T18:15:48.883Z,18.47
2018-02-27T18:18:16.365Z,17.00
2018-02-27T18:20:45.319Z,16.85
2018-02-27T18:23:14.816Z,18.37
2018-02-27T18:25:44.388Z,17.60
2018-02-27T18:28:14.538Z,16.10
2018-02-27T18:30:42.575Z,18.95
2018-02-27T18:33:10.066Z,20.87
2018-02-27T18:35:38.331Z,15.93
2018-02-27T18:38:06.573Z,18.37
2018-02-27T18:40:34.075Z,19.33
2018-02-27T18:43:02.340Z,18.27
2018-02-27T18:45:29.838Z,19.67
2018-02-27T18:47:57.337Z,20.77
2018-02-27T18:50:25.597Z,22.73
2018-02-27T18:52:53.070Z,18.87
2018-02-27T18:55:27.474Z,23.73
2018-02-27T18:57:54.959Z,21.70
2018-02-27T19:00:22.453Z,19.57
2018-02-27T19:02:49.926Z,23.65
2018-02-27T19:05:17.425Z,27.67
2018-02-27T19:07:44.917Z,24.00
2018-02-27T19:10:13.171Z,29.73
2018-02-27T19:12:41.420Z,30.07
2018-02-27T19:15:08.928Z,20.80
2018-02-27T19:17:36.417Z,27.37
2018-02-27T19:20:03.901Z,17.30
2018-02-27T19:22:31.387Z,18.23
2018-02-27T19:24:59.649Z,18.73
2018-02-27T19:27:27.152Z,20.23
2018-02-27T19:29:54.639Z,19.67
2018-02-27T19:32:22.164Z,19.00
2018-02-27T19:34:50.400Z,19.70
2018-02-27T19:37:17.890Z,20.47
2018-02-27T19:39:45.391Z,20.37
2018-02-27T19:42:12.875Z,19.43
2018-02-27T19:44:41.873Z,20.87
2018-02-27T19:47:10.186Z,21.47
2018-02-27T19:49:37.808Z,20.67
2018-02-27T19:52:06.079Z,21.70
2018-02-27T19:54:33.591Z,24.90
2018-02-27T19:57:02.196Z,32.50
2018-02-27T19:59:29.716Z,22.70
2018-02-27T20:01:57.224Z,25.57
2018-02-27T20:04:24.726Z,27.40
2018-02-27T20:06:52.211Z,23.63
2018-02-27T20:09:19.705Z,22.75
2018-02-27T20:11:47.201Z,20.73
2018-02-27T20:14:32.313Z,25.90
2018-02-27T20:16:59.850Z,25.20
2018-02-27T20:19:28.137Z,25.00
2018-02-27T20:21:56.327Z,22.13
2018-02-27T20:24:23.831Z,22.90
2018-02-27T20:26:51.339Z,29.67
2018-02-27T20:29:20.691Z,38.17
2018-02-27T20:31:48.949Z,27.92
2018-02-27T20:34:16.442Z,24.90
2018-02-27T20:36:43.950Z,25.83
2018-02-27T20:39:17.251Z,24.40
2018-02-27T20:41:44.741Z,26.50
2018-02-27T20:44:12.235Z,25.73
2018-02-27T20:46:39.723Z,24.43
2018-02-27T20:49:08.707Z,28.10
2018-02-27T20:51:36.198Z,23.70
2018-02-27T20:54:04.461Z,28.37
2018-02-27T20:56:31.976Z,23.80
2018-02-27T20:58:59.457Z,25.90
2018-02-27T21:01:27.118Z,22.90
2018-02-27T21:03:54.597Z,21.40
2018-02-27T21:06:22.264Z,20.40
2018-02-27T21:08:50.544Z,26.23
2018-02-27T21:11:24.985Z,21.43
2018-02-27T21:13:52.492Z,21.60
2018-02-27T21:16:19.970Z,17.50
2018-02-27T21:18:47.466Z,19.03
2018-02-27T21:21:14.944Z,17.73
2018-02-27T21:23:42.446Z,18.93
2018-02-27T21:26:09.930Z,19.90
2018-02-27T21:28:37.499Z,20.83
2018-02-27T21:31:04.945Z,22.47
2018-02-27T21:33:32.451Z,21.97
2018-02-27T21:35:59.931Z,20.87
2018-02-27T21:38:27.439Z,21.40
2018-02-27T21:40:54.941Z,24.43
2018-02-27T21:43:22.451Z,23.10
2018-02-27T21:45:49.937Z,23.57
2018-02-27T21:48:17.443Z,20.20
2018-02-27T21:50:45.706Z,18.67
2018-02-27T21:53:13.962Z,19.20
2018-02-27T21:55:43.140Z,19.90
2018-02-27T21:58:10.623Z,19.90
2018-02-27T22:00:38.129Z,22.53
2018-02-27T22:03:05.634Z,21.50
2018-02-27T22:05:33.118Z,20.07
2018-02-27T22:08:01.397Z,21.73
2018-02-27T22:10:29.697Z,22.00
2018-02-27T22:12:57.199Z,22.83
2018-02-27T22:15:24.684Z,23.00
2018-02-27T22:17:52.961Z,20.90
2018-02-27T22:20:21.203Z,22.00
2018-02-27T22:22:48.710Z,21.67
2018-02-27T22:25:16.201Z,21.50
2018-02-27T22:27:43.700Z,18.50
2018-02-27T22:30:11.986Z,20.47
2018-02-27T22:32:40.237Z,20.25
2018-02-27T22:35:07.742Z,20.37
2018-02-27T22:37:35.266Z,19.90
2018-02-27T22:40:02.774Z,21.20
2018-02-27T22:42:30.266Z,21.83
2018-02-27T22:44:57.755Z,21.60
2018-02-27T22:47:25.998Z,19.40
2018-02-27T22:49:53.508Z,21.10
2018-02-27T22:52:20.992Z,23.60
2018-02-27T22:54:48.482Z,21.83
2018-02-27T22:57:15.971Z,21.23
2018-02-27T22:59:44.987Z,20.90
2018-02-27T23:02:12.423Z,21.70
2018-02-27T23:04:40.680Z,21.60
2018-02-27T23:07:08.923Z,22.73
2018-02-27T23:09:36.423Z,24.23
2018-02-27T23:12:04.668Z,23.30
2018-02-27T23:14:32.172Z,23.07
2018-02-27T23:16:59.664Z,21.90
2018-02-27T23:19:27.172Z,22.35
2018-02-27T23:21:55.425Z,21.43
2018-02-27T23:24:24.670Z,21.48
2018-02-27T23:26:54.904Z,19.93
2018-02-27T23:29:23.088Z,20.37
2018-02-27T23:31:50.756Z,20.93
2018-02-27T23:34:19.542Z,21.27
2018-02-27T23:36:47.014Z,22.17
2018-02-27T23:39:14.507Z,19.80
2018-02-27T23:41:42.768Z,22.50
2018-02-27T23:44:10.269Z,20.67
2018-02-27T23:46:37.758Z,22.43
2018-02-27T23:49:05.354Z,21.50
2018-02-27T23:51:33.597Z,30.90
2018-02-27T23:54:01.102Z,24.50
2018-02-27T23:56:28.603Z,23.03
2018-02-27T23:58:56.119Z,22.33
